createdAt,value
2023-04-01T00:01:01.425Z,98664.88
2023-04-01T00:05:53.430Z,98860.19
2023-04-01T00:10:46.305Z,98689.91
2023-04-01T00:15:38.077Z,98885.22
2023-04-01T00:20:30.844Z,98897.03
2023-04-01T00:25:23.774Z,98623.41
2023-04-01T00:30:16.525Z,98651.00
2023-04-01T00:35:09.257Z,98917.53
2023-04-01T00:40:01.097Z,98894.97
2023-04-01T00:44:55.437Z,98644.50
2023-04-01T00:49:51.866Z,98678.13
2023-04-01T00:54:47.678Z,98743.44
2023-04-01T00:59:48.933Z,98641.38
2023-04-01T01:04:40.857Z,98552.97
2023-04-01T01:09:44.195Z,98568.28
2023-04-01T01:14:46.617Z,98643.75
2023-04-01T01:20:26.570Z,98876.63
2023-04-01T01:25:26.931Z,98870.28
2023-04-01T01:30:35.520Z,98667.00
2023-04-01T01:35:27.222Z,98868.72
2023-04-01T01:40:20.425Z,98674.16
2023-04-01T01:45:17.218Z,98610.28
2023-04-01T01:50:12.187Z,98745.19
2023-04-01T01:55:04.282Z,98713.22
2023-04-01T02:00:14.765Z,98871.44
2023-04-01T02:05:12.992Z,98877.44
2023-04-01T02:10:05.546Z,98768.78
2023-04-01T02:15:15.581Z,98766.69
2023-04-01T02:20:18.795Z,98885.09
2023-04-01T02:25:15.759Z,98883.34
2023-04-01T02:30:08.533Z,98623.53
2023-04-01T02:35:04.262Z,98673.16
2023-04-01T02:40:01.739Z,98704.72
2023-04-01T02:44:53.763Z,98611.69
2023-04-01T02:49:45.804Z,98888.50
2023-04-01T02:54:37.553Z,98654.94
2023-04-01T02:59:29.491Z,98608.56
2023-04-01T03:04:21.291Z,98877.81
2023-04-01T03:09:13.123Z,98472.94
2023-04-01T03:14:04.868Z,98676.63
2023-04-01T10:06:10.358Z,99183.03
2023-04-01T10:11:28.085Z,98946.06
2023-04-01T10:16:44.599Z,99196.94
2023-04-01T10:22:07.753Z,99201.91
2023-04-01T10:27:19.328Z,98989.53
2023-04-01T10:33:04.592Z,99216.75
2023-04-01T10:38:28.903Z,99194.09
2023-04-01T10:43:46.734Z,99217.00
2023-04-01T10:48:45.543Z,99217.81
2023-04-01T10:53:59.198Z,99221.22
2023-04-01T10:59:29.378Z,98963.19
2023-04-01T11:05:19.495Z,99230.19
2023-04-01T11:10:53.773Z,98929.53
2023-04-01T11:16:21.378Z,98949.50
2023-04-01T11:21:16.538Z,99236.38
2023-04-01T11:26:18.532Z,98971.31
2023-04-01T11:31:53.531Z,99246.84
2023-04-01T11:36:48.938Z,99245.41
2023-04-01T11:42:14.138Z,99257.56
2023-04-01T11:47:58.973Z,99165.31
2023-04-01T11:56:06.115Z,99272.88
2023-04-01T12:01:00.862Z,99280.56
2023-04-01T12:06:17.506Z,99288.72
2023-04-01T12:11:46.513Z,99286.28
2023-04-01T12:17:08.941Z,99286.56
2023-04-01T12:22:25.932Z,99292.88
2023-04-01T12:27:45.055Z,99295.88
2023-04-01T12:33:15.049Z,99311.38
2023-04-01T12:38:51.859Z,98980.53
2023-04-01T12:43:43.616Z,99320.38
2023-04-01T12:49:00.383Z,99318.78
2023-04-01T12:54:43.766Z,99322.75
2023-04-01T13:00:10.703Z,99186.88
2023-04-01T13:05:22.022Z,99325.97
2023-04-01T13:10:32.901Z,99338.75
2023-04-01T13:15:38.502Z,99208.59
2023-04-01T13:20:36.442Z,99343.31
2023-04-01T13:25:42.873Z,99173.53
2023-04-01T13:30:45.834Z,99011.28
2023-04-01T13:35:54.244Z,99250.25
2023-04-01T13:41:41.334Z,99362.34
2023-04-01T13:47:26.138Z,99266.50
2023-04-01T13:52:42.649Z,99312.34
2023-04-01T13:57:55.845Z,99381.03
2023-04-01T14:03:06.066Z,99381.06
2023-04-01T14:08:07.124Z,99390.03
2023-04-01T14:13:23.823Z,99391.03
2023-04-01T14:18:38.362Z,99324.66
2023-04-01T14:24:15.062Z,99355.03
2023-04-01T14:29:54.963Z,99393.09
2023-04-01T14:35:31.973Z,99370.69
2023-04-01T14:40:49.063Z,99429.94
2023-04-01T14:46:06.279Z,99436.13
2023-04-01T14:51:10.559Z,99219.06
2023-04-01T14:56:07.166Z,99333.44
2023-04-01T15:01:14.796Z,99440.44
2023-04-01T15:06:15.931Z,99437.50
2023-04-01T15:11:24.844Z,99372.50
2023-04-01T15:16:25.061Z,99196.72
2023-04-01T15:21:32.194Z,99453.56
2023-04-01T15:26:47.642Z,99218.72
2023-04-01T15:32:24.672Z,99471.97
2023-04-01T15:37:47.450Z,99479.84
2023-04-01T15:42:56.327Z,99496.16
2023-04-01T15:48:00.073Z,99486.91
2023-04-01T15:53:33.091Z,99499.53
2023-04-01T15:58:41.821Z,99442.38
2023-04-01T16:03:43.896Z,99439.56
2023-04-01T16:09:03.905Z,99516.50
2023-04-01T16:14:25.967Z,99392.50
2023-04-01T16:19:51.846Z,99532.19
2023-04-01T16:24:51.186Z,99261.72
2023-04-01T16:29:51.989Z,99543.53
2023-04-01T16:35:11.622Z,99548.38
2023-04-01T16:40:35.879Z,99431.22
2023-04-01T16:45:38.031Z,99559.81
2023-04-01T16:50:47.791Z,99511.09
2023-04-01T16:55:50.519Z,99463.63
2023-04-01T17:00:50.819Z,99584.31
2023-04-01T17:05:53.192Z,99298.09
2023-04-01T17:10:52.829Z,99597.94
2023-04-01T17:16:18.958Z,99563.44
2023-04-01T17:21:28.881Z,99613.84
2023-04-01T17:26:42.724Z,99615.75
2023-04-01T17:31:51.158Z,99628.13
2023-04-01T17:37:10.741Z,99631.97
2023-04-01T17:42:23.115Z,99646.47
2023-04-01T17:47:49.605Z,99647.28
2023-04-01T17:53:10.982Z,99614.63
2023-04-01T17:58:29.432Z,99353.09
2023-04-01T18:03:59.319Z,99675.09
2023-04-01T18:09:22.266Z,99645.13
2023-04-01T18:14:23.320Z,99697.34
2023-04-01T18:19:24.435Z,99599.06
2023-04-01T18:24:19.195Z,99713.63
2023-04-01T18:29:19.130Z,99725.03
2023-04-01T18:34:40.693Z,99428.53
2023-04-01T18:39:41.623Z,99392.66
2023-04-01T18:44:48.788Z,99742.94
2023-04-01T18:49:44.923Z,99489.84
2023-04-01T18:55:09.903Z,99586.56
2023-04-01T19:00:31.049Z,99476.91
2023-04-01T19:05:35.116Z,99765.28
2023-04-01T19:11:11.419Z,99590.41
2023-04-01T19:16:25.636Z,99781.81
2023-04-01T19:21:23.460Z,99503.44
2023-04-01T19:26:40.151Z,99535.41
2023-04-01T19:31:55.325Z,99787.97
2023-04-01T19:36:55.668Z,99380.47
2023-04-01T19:42:04.468Z,99616.31
2023-04-01T19:47:16.219Z,99800.75
2023-04-01T19:52:20.228Z,99802.44
2023-04-01T19:57:23.495Z,99468.78
2023-04-01T20:02:27.734Z,99577.09
2023-04-01T20:07:27.793Z,99592.31
2023-04-01T20:12:22.744Z,99827.19
2023-04-01T20:17:17.858Z,99840.75
2023-04-01T20:22:31.233Z,99751.09
2023-04-01T20:27:32.764Z,99599.84
2023-04-01T20:32:35.349Z,99701.66
2023-04-01T20:37:43.138Z,99868.78
2023-04-01T20:43:13.216Z,99572.72
2023-04-01T20:48:33.844Z,99404.72
2023-04-01T20:53:43.446Z,99869.00
2023-04-01T20:58:52.771Z,99883.56
2023-04-01T21:03:56.618Z,99760.44
2023-04-01T21:09:07.760Z,99885.50
2023-04-01T21:14:05.700Z,99552.84
2023-04-01T21:19:14.103Z,99832.72
2023-04-01T21:24:30.995Z,99896.28
2023-04-01T21:29:54.690Z,99736.69
2023-04-01T21:35:14.907Z,99910.84
2023-04-01T21:40:18.891Z,99915.16
2023-04-01T21:45:37.127Z,99411.59
2023-04-01T21:50:46.765Z,99644.41
2023-04-01T21:55:41.719Z,99915.69
2023-04-01T22:00:49.680Z,99826.53
2023-04-01T22:05:51.165Z,99801.41
2023-04-01T22:11:08.097Z,99682.25
2023-04-01T22:16:14.272Z,99659.19
2023-04-01T22:21:22.262Z,99949.38
2023-04-01T22:26:23.452Z,99738.28
2023-04-01T22:31:24.354Z,99603.19
2023-04-01T22:36:47.775Z,99879.03
2023-04-01T22:41:57.190Z,99862.44
2023-04-01T22:47:16.099Z,99758.34
2023-04-01T22:52:28.329Z,99813.47
2023-04-01T22:57:55.192Z,99917.41
2023-04-01T23:03:03.302Z,99773.41
2023-04-01T23:08:06.625Z,99973.19
2023-04-01T23:13:03.256Z,99999.78
2023-04-01T23:18:22.019Z,99887.16
2023-04-01T23:23:17.366Z,100014.09
2023-04-01T23:28:14.838Z,100020.13
2023-04-01T23:33:20.966Z,99974.97
2023-04-01T23:38:12.928Z,99766.34
2023-04-01T23:43:15.019Z,99920.88
2023-04-01T23:48:07.263Z,99926.84
2023-04-01T23:53:17.748Z,99901.91
2023-04-01T23:58:11.865Z,100073.09
